sensor_id;sensor_type;location;lat;lon;timestamp;pressure;altitude;pressure_sealevel;temperature;humidity
23253;BME280;11795;47.054;15.408;2023-03-26T00:00:00;96990;;;5.5;88.4
23253;BME280;11795;47.054;15.408;2023-03-26T00:02:00;96990;;;5.4;88.5
23253;BME280;11795;47.054;15.408;2023-03-26T00:04:01;96990;;;5.5;87.9
23253;BME280;11795;47.054;15.408;2023-03-26T00:06:04;96990;;;5.3;88.2
23253;BME280;11795;47.054;15.408;2023-03-26T00:08:00;96990;;;5.3;88.6
23253;BME280;11795;47.054;15.408;2023-03-26T00:10:00;96990;;;5.3;88.1
23253;BME280;11795;47.054;15.408;2023-03-26T00:12:00;96990;;;5.2;88.5
23253;BME280;11795;47.054;15.408;2023-03-26T00:14:02;96990;;;5.4;88.0
23253;BME280;11795;47.054;15.408;2023-03-26T00:16:01;96990;;;5.2;88.2
23253;BME280;11795;47.054;15.408;2023-03-26T00:18:00;97000;;;5.2;88.5
23253;BME280;11795;47.054;15.408;2023-03-26T00:20:00;96990;;;5.3;87.9
23253;BME280;11795;47.054;15.408;2023-03-26T00:22:02;96990;;;5.2;88.3
23253;BME280;11795;47.054;15.408;2023-03-26T00:24:05;96980;;;5.4;87.8
23253;BME280;11795;47.054;15.408;2023-03-26T00:26:01;96980;;;5.2;88.1
23253;BME280;11795;47.054;15.408;2023-03-26T00:28:00;96980;;;5.2;88.4
23253;BME280;11795;47.054;15.408;2023-03-26T00:30:00;96980;;;5.3;88.0
23253;BME280;11795;47.054;15.408;2023-03-26T00:32:01;96980;;;5.2;88.3
23253;BME280;11795;47.054;15.408;2023-03-26T00:34:02;96980;;;5.3;87.4
23253;BME280;11795;47.054;15.408;2023-03-26T00:36:00;96980;;;5.1;87.8
23253;BME280;11795;47.054;15.408;2023-03-26T00:38:00;96980;;;5.1;88.2
23253;BME280;11795;47.054;15.408;2023-03-26T00:40:04;96980;;;5.2;87.5
23253;BME280;11795;47.054;15.408;2023-03-26T00:42:06;96980;;;5.1;88.0
23253;BME280;11795;47.054;15.408;2023-03-26T00:44:00;96980;;;5.3;87.7
23253;BME280;11795;47.054;15.408;2023-03-26T00:46:01;96990;;;5.1;88.1
23253;BME280;11795;47.054;15.408;2023-03-26T00:48:00;96980;;;5.1;88.3
23253;BME280;11795;47.054;15.408;2023-03-26T00:50:00;96980;;;5.1;87.8
23253;BME280;11795;47.054;15.408;2023-03-26T00:52:02;96980;;;5.1;88.2
23253;BME280;11795;47.054;15.408;2023-03-26T00:54:00;96980;;;5.1;87.7
23253;BME280;11795;47.054;15.408;2023-03-26T00:56:00;96980;;;5.0;87.9
23253;BME280;11795;47.054;15.408;2023-03-26T00:58:00;96980;;;4.9;88.2
23253;BME280;11795;47.054;15.408;2023-03-26T01:00:14;96970;;;5.0;87.5
23253;BME280;11795;47.054;15.408;2023-03-26T01:02:00;96970;;;4.9;88.1
23253;BME280;11795;47.054;15.408;2023-03-26T01:06:05;96970;;;5.0;88.1
23253;BME280;11795;47.054;15.408;2023-03-26T01:08:00;96960;;;5.0;88.3
23253;BME280;11795;47.054;15.408;2023-03-26T01:10:00;96960;;;5.0;87.6
23253;BME280;11795;47.054;15.408;2023-03-26T01:12:03;96960;;;4.9;87.9
23253;BME280;11795;47.054;15.408;2023-03-26T01:14:05;96950;;;5.1;86.9
23253;BME280;11795;47.054;15.408;2023-03-26T01:16:01;96960;;;4.8;86.9
23253;BME280;11795;47.054;15.408;2023-03-26T01:18:04;96950;;;4.8;87.3
23253;BME280;11795;47.054;15.408;2023-03-26T01:20:14;96960;;;4.8;86.8
23253;BME280;11795;47.054;15.408;2023-03-26T01:22:00;96950;;;4.7;87.2
23253;BME280;11795;47.054;15.408;2023-03-26T01:24:01;96950;;;4.8;86.8
23253;BME280;11795;47.054;15.408;2023-03-26T01:26:07;96940;;;4.6;87.1
23253;BME280;11795;47.054;15.408;2023-03-26T01:28:01;96940;;;4.5;87.5
23253;BME280;11795;47.054;15.408;2023-03-26T01:30:05;96930;;;4.7;87.1
23253;BME280;11795;47.054;15.408;2023-03-26T01:32:07;96930;;;4.5;87.8
23253;BME280;11795;47.054;15.408;2023-03-26T01:34:05;96930;;;4.7;87.5
23253;BME280;11795;47.054;15.408;2023-03-26T01:36:04;96920;;;4.5;87.8
23253;BME280;11795;47.054;15.408;2023-03-26T01:38:03;96930;;;4.5;88.1
23253;BME280;11795;47.054;15.408;2023-03-26T01:40:08;96930;;;4.6;87.5
23253;BME280;11795;47.054;15.408;2023-03-26T01:42:03;96930;;;4.4;88.1
23253;BME280;11795;47.054;15.408;2023-03-26T01:44:06;96930;;;4.7;87.8
23253;BME280;11795;47.054;15.408;2023-03-26T01:46:04;96920;;;4.5;87.8
23253;BME280;11795;47.054;15.408;2023-03-26T01:48:01;96930;;;4.5;88.0
23253;BME280;11795;47.054;15.408;2023-03-26T01:50:00;96910;;;4.6;87.5
23253;BME280;11795;47.054;15.408;2023-03-26T01:52:00;96910;;;4.5;87.9
23253;BME280;11795;47.054;15.408;2023-03-26T01:54:02;96910;;;4.6;87.3
23253;BME280;11795;47.054;15.408;2023-03-26T01:56:09;96910;;;4.5;87.5
23253;BME280;11795;47.054;15.408;2023-03-26T01:58:06;96900;;;4.4;87.7
23253;BME280;11795;47.054;15.408;2023-03-26T02:00:09;96890;;;4.5;87.3
23253;BME280;11795;47.054;15.408;2023-03-26T02:02:06;96900;;;4.4;87.8
23253;BME280;11795;47.054;15.408;2023-03-26T02:04:05;96910;;;4.5;87.4
23253;BME280;11795;47.054;15.408;2023-03-26T02:06:05;96910;;;4.5;87.4
23253;BME280;11795;47.054;15.408;2023-03-26T02:08:04;96920;;;4.4;87.7
23253;BME280;11795;47.054;15.408;2023-03-26T02:10:05;96930;;;4.4;87.6
23253;BME280;11795;47.054;15.408;2023-03-26T02:12:03;96930;;;4.3;87.5
23253;BME280;11795;47.054;15.408;2023-03-26T02:14:00;96930;;;4.4;87.3
23253;BME280;11795;47.054;15.408;2023-03-26T02:16:02;96930;;;4.2;87.5
23253;BME280;11795;47.054;15.408;2023-03-26T02:18:01;96930;;;4.1;88.3
23253;BME280;11795;47.054;15.408;2023-03-26T02:20:07;96920;;;4.0;88.1
23253;BME280;11795;47.054;15.408;2023-03-26T02:22:01;96930;;;3.9;88.6
23253;BME280;11795;47.054;15.408;2023-03-26T02:24:02;96920;;;4.1;88.6
23253;BME280;11795;47.054;15.408;2023-03-26T02:26:01;96920;;;3.9;89.0
23253;BME280;11795;47.054;15.408;2023-03-26T02:28:00;96920;;;3.8;89.5
23253;BME280;11795;47.054;15.408;2023-03-26T02:30:02;96920;;;4.0;89.1
23253;BME280;11795;47.054;15.408;2023-03-26T02:32:01;96920;;;3.9;89.5
23253;BME280;11795;47.054;15.408;2023-03-26T02:34:00;96910;;;4.1;89.1
23253;BME280;11795;47.054;15.408;2023-03-26T02:36:00;96920;;;3.9;89.4
23253;BME280;11795;47.054;15.408;2023-03-26T02:38:01;96920;;;3.9;89.6
23253;BME280;11795;47.054;15.408;2023-03-26T02:40:00;96930;;;3.9;89.0
23253;BME280;11795;47.054;15.408;2023-03-26T02:42:00;96920;;;3.8;89.5
23253;BME280;11795;47.054;15.408;2023-03-26T02:44:00;96930;;;4.0;89.2
23253;BME280;11795;47.054;15.408;2023-03-26T02:46:00;96930;;;3.9;89.4
23253;BME280;11795;47.054;15.408;2023-03-26T02:48:00;96930;;;3.8;89.7
23253;BME280;11795;47.054;15.408;2023-03-26T02:50:00;96930;;;4.0;89.2
23253;BME280;11795;47.054;15.408;2023-03-26T02:52:00;96930;;;3.8;89.5
23253;BME280;11795;47.054;15.408;2023-03-26T02:54:01;96920;;;4.0;89.1
23253;BME280;11795;47.054;15.408;2023-03-26T02:56:00;96920;;;3.9;89.3
23253;BME280;11795;47.054;15.408;2023-03-26T02:58:00;96930;;;3.8;89.6
23253;BME280;11795;47.054;15.408;2023-03-26T03:00:11;96930;;;3.9;88.9
23253;BME280;11795;47.054;15.408;2023-03-26T03:02:00;96930;;;3.8;89.6
23253;BME280;11795;47.054;15.408;2023-03-26T03:04:00;96930;;;4.0;89.3
23253;BME280;11795;47.054;15.408;2023-03-26T03:06:00;96930;;;3.8;89.4
23253;BME280;11795;47.054;15.408;2023-03-26T03:08:00;96940;;;3.8;89.7
23253;BME280;11795;47.054;15.408;2023-03-26T03:10:01;96930;;;3.9;89.1
23253;BME280;11795;47.054;15.408;2023-03-26T03:12:00;96930;;;3.8;89.3
23253;BME280;11795;47.054;15.408;2023-03-26T03:14:00;96930;;;4.0;88.9
23253;BME280;11795;47.054;15.408;2023-03-26T03:16:00;96930;;;3.8;89.1
23253;BME280;11795;47.054;15.408;2023-03-26T03:18:00;96930;;;3.8;89.6
23253;BME280;11795;47.054;15.408;2023-03-26T03:20:00;96930;;;3.9;88.8
23253;BME280;11795;47.054;15.408;2023-03-26T03:22:00;96930;;;3.7;89.2
23253;BME280;11795;47.054;15.408;2023-03-26T03:24:00;96930;;;3.9;89.0
23253;BME280;11795;47.054;15.408;2023-03-26T03:26:01;96940;;;3.8;89.1
23253;BME280;11795;47.054;15.408;2023-03-26T03:28:00;96920;;;3.7;89.5
23253;BME280;11795;47.054;15.408;2023-03-26T03:30:00;96920;;;3.8;89.2
23253;BME280;11795;47.054;15.408;2023-03-26T03:32:00;96920;;;3.7;89.7
23253;BME280;11795;47.054;15.408;2023-03-26T03:34:00;96920;;;3.9;89.5
23253;BME280;11795;47.054;15.408;2023-03-26T03:36:00;96920;;;3.8;89.6
23253;BME280;11795;47.054;15.408;2023-03-26T03:38:00;96920;;;3.7;90.0
23253;BME280;11795;47.054;15.408;2023-03-26T03:40:00;96920;;;3.8;89.6
23253;BME280;11795;47.054;15.408;2023-03-26T03:42:00;96930;;;3.8;90.0
23253;BME280;11795;47.054;15.408;2023-03-26T03:44:00;96920;;;4.0;89.6
23253;BME280;11795;47.054;15.408;2023-03-26T03:46:01;96920;;;3.8;89.6
23253;BME280;11795;47.054;15.408;2023-03-26T03:48:01;96930;;;3.7;90.0
23253;BME280;11795;47.054;15.408;2023-03-26T03:50:00;96930;;;3.9;89.4
23253;BME280;11795;47.054;15.408;2023-03-26T03:52:00;96930;;;3.8;89.7
23253;BME280;11795;47.054;15.408;2023-03-26T03:54:00;96930;;;4.0;89.3
23253;BME280;11795;47.054;15.408;2023-03-26T03:56:01;96920;;;3.8;89.3
23253;BME280;11795;47.054;15.408;2023-03-26T03:58:00;96930;;;3.8;89.5
23253;BME280;11795;47.054;15.408;2023-03-26T04:00:00;96930;;;3.9;88.5
23253;BME280;11795;47.054;15.408;2023-03-26T04:02:00;96930;;;3.6;88.9
23253;BME280;11795;47.054;15.408;2023-03-26T04:04:00;96940;;;3.8;88.6
23253;BME280;11795;47.054;15.408;2023-03-26T04:06:00;96940;;;3.7;88.8
23253;BME280;11795;47.054;15.408;2023-03-26T04:08:00;96940;;;3.6;89.1
23253;BME280;11795;47.054;15.408;2023-03-26T04:10:03;96940;;;3.7;88.7
23253;BME280;11795;47.054;15.408;2023-03-26T04:12:00;96940;;;3.6;89.1
23253;BME280;11795;47.054;15.408;2023-03-26T04:14:00;96940;;;3.8;88.7
23253;BME280;11795;47.054;15.408;2023-03-26T04:16:00;96940;;;3.6;88.8
23253;BME280;11795;47.054;15.408;2023-03-26T04:18:00;96940;;;3.6;89.3
23253;BME280;11795;47.054;15.408;2023-03-26T04:20:11;96940;;;3.7;88.7
23253;BME280;11795;47.054;15.408;2023-03-26T04:22:01;96950;;;3.6;89.2
23253;BME280;11795;47.054;15.408;2023-03-26T04:24:01;96950;;;3.8;88.8
23253;BME280;11795;47.054;15.408;2023-03-26T04:26:05;96950;;;3.7;88.8
23253;BME280;11795;47.054;15.408;2023-03-26T04:28:02;96940;;;3.6;89.2
23253;BME280;11795;47.054;15.408;2023-03-26T04:30:00;96950;;;3.7;88.7
23253;BME280;11795;47.054;15.408;2023-03-26T04:32:09;96950;;;3.6;89.1
23253;BME280;11795;47.054;15.408;2023-03-26T04:34:05;96940;;;3.8;88.6
23253;BME280;11795;47.054;15.408;2023-03-26T04:36:02;96930;;;3.6;88.6
23253;BME280;11795;47.054;15.408;2023-03-26T04:38:01;96940;;;3.5;88.9
23253;BME280;11795;47.054;15.408;2023-03-26T04:40:11;96930;;;3.6;88.3
23253;BME280;11795;47.054;15.408;2023-03-26T04:42:00;96930;;;3.5;88.7
23253;BME280;11795;47.054;15.408;2023-03-26T04:44:01;96920;;;3.7;88.4
23253;BME280;11795;47.054;15.408;2023-03-26T04:46:02;96930;;;3.5;88.4
23253;BME280;11795;47.054;15.408;2023-03-26T04:48:01;96930;;;3.4;88.8
23253;BME280;11795;47.054;15.408;2023-03-26T04:50:00;96930;;;3.5;88.3
23253;BME280;11795;47.054;15.408;2023-03-26T04:52:00;96930;;;3.5;88.7
23253;BME280;11795;47.054;15.408;2023-03-26T04:54:01;96930;;;3.6;88.3
23253;BME280;11795;47.054;15.408;2023-03-26T04:56:07;96930;;;3.5;88.5
23253;BME280;11795;47.054;15.408;2023-03-26T04:58:03;96920;;;3.4;88.7
23253;BME280;11795;47.054;15.408;2023-03-26T05:00:03;96930;;;3.5;88.2
23253;BME280;11795;47.054;15.408;2023-03-26T05:02:02;96920;;;3.5;88.5
23253;BME280;11795;47.054;15.408;2023-03-26T05:04:00;96920;;;3.7;87.9
23253;BME280;11795;47.054;15.408;2023-03-26T05:06:01;96920;;;3.6;87.7
23253;BME280;11795;47.054;15.408;2023-03-26T05:08:00;96920;;;3.5;88.0
23253;BME280;11795;47.054;15.408;2023-03-26T05:10:03;96910;;;3.6;87.5
23253;BME280;11795;47.054;15.408;2023-03-26T05:12:00;96910;;;3.5;87.8
23253;BME280;11795;47.054;15.408;2023-03-26T05:14:00;96910;;;3.7;87.5
23253;BME280;11795;47.054;15.408;2023-03-26T05:16:00;96910;;;3.5;87.2
23253;BME280;11795;47.054;15.408;2023-03-26T05:18:00;96910;;;3.4;87.6
23253;BME280;11795;47.054;15.408;2023-03-26T05:20:00;96900;;;3.5;87.2
23253;BME280;11795;47.054;15.408;2023-03-26T05:22:01;96900;;;3.5;87.6
23253;BME280;11795;47.054;15.408;2023-03-26T05:24:01;96900;;;3.7;87.5
23253;BME280;11795;47.054;15.408;2023-03-26T05:26:01;96900;;;3.5;87.7
23253;BME280;11795;47.054;15.408;2023-03-26T05:28:00;96900;;;3.6;88.1
23253;BME280;11795;47.054;15.408;2023-03-26T05:30:00;96900;;;3.8;87.4
23253;BME280;11795;47.054;15.408;2023-03-26T05:32:00;96900;;;3.8;87.6
23253;BME280;11795;47.054;15.408;2023-03-26T05:34:00;96900;;;4.2;87.4
23253;BME280;11795;47.054;15.408;2023-03-26T05:36:02;96900;;;4.2;86.7
23253;BME280;11795;47.054;15.408;2023-03-26T05:38:00;96900;;;4.1;86.5
23253;BME280;11795;47.054;15.408;2023-03-26T05:40:01;96900;;;4.2;85.5
23253;BME280;11795;47.054;15.408;2023-03-26T05:42:00;96890;;;4.1;86.0
23253;BME280;11795;47.054;15.408;2023-03-26T05:44:00;96880;;;4.3;85.7
23253;BME280;11795;47.054;15.408;2023-03-26T05:46:00;96890;;;4.2;85.7
23253;BME280;11795;47.054;15.408;2023-03-26T05:48:00;96890;;;4.2;85.8
23253;BME280;11795;47.054;15.408;2023-03-26T05:50:01;96890;;;4.3;85.1
23253;BME280;11795;47.054;15.408;2023-03-26T05:52:00;96880;;;4.1;85.6
23253;BME280;11795;47.054;15.408;2023-03-26T05:54:00;96890;;;4.3;85.6
23253;BME280;11795;47.054;15.408;2023-03-26T05:56:01;96900;;;4.2;85.5
23253;BME280;11795;47.054;15.408;2023-03-26T05:58:00;96900;;;4.2;85.8
23253;BME280;11795;47.054;15.408;2023-03-26T06:00:00;96910;;;4.2;85.3
23253;BME280;11795;47.054;15.408;2023-03-26T06:02:00;96900;;;4.2;85.8
23253;BME280;11795;47.054;15.408;2023-03-26T06:04:00;96900;;;4.4;85.5
23253;BME280;11795;47.054;15.408;2023-03-26T06:06:01;96890;;;4.4;85.3
23253;BME280;11795;47.054;15.408;2023-03-26T06:08:00;96900;;;4.2;85.3
23253;BME280;11795;47.054;15.408;2023-03-26T06:10:00;96900;;;4.4;85.5
23253;BME280;11795;47.054;15.408;2023-03-26T06:12:00;96900;;;4.3;86.1
23253;BME280;11795;47.054;15.408;2023-03-26T06:14:00;96910;;;4.4;86.3
23253;BME280;11795;47.054;15.408;2023-03-26T06:16:00;96910;;;4.5;87.0
23253;BME280;11795;47.054;15.408;2023-03-26T06:18:00;96900;;;4.3;86.9
23253;BME280;11795;47.054;15.408;2023-03-26T06:20:00;96900;;;4.4;86.8
23253;BME280;11795;47.054;15.408;2023-03-26T06:22:00;96890;;;4.3;87.4
23253;BME280;11795;47.054;15.408;2023-03-26T06:24:00;96900;;;4.6;87.5
23253;BME280;11795;47.054;15.408;2023-03-26T06:26:00;96900;;;4.5;87.4
23253;BME280;11795;47.054;15.408;2023-03-26T06:28:00;96900;;;4.5;87.3
23253;BME280;11795;47.054;15.408;2023-03-26T06:30:00;96900;;;4.7;86.5
23253;BME280;11795;47.054;15.408;2023-03-26T06:32:00;96900;;;4.6;87.0
23253;BME280;11795;47.054;15.408;2023-03-26T06:34:00;96890;;;4.8;87.0
23253;BME280;11795;47.054;15.408;2023-03-26T06:36:00;96880;;;4.8;86.6
23253;BME280;11795;47.054;15.408;2023-03-26T06:38:01;96880;;;4.8;85.7
23253;BME280;11795;47.054;15.408;2023-03-26T06:40:00;96880;;;4.8;85.7
23253;BME280;11795;47.054;15.408;2023-03-26T06:42:00;96890;;;4.8;86.4
23253;BME280;11795;47.054;15.408;2023-03-26T06:44:00;96890;;;5.1;86.3
23253;BME280;11795;47.054;15.408;2023-03-26T06:46:01;96890;;;5.1;86.5
23253;BME280;11795;47.054;15.408;2023-03-26T06:48:00;96890;;;5.1;87.0
23253;BME280;11795;47.054;15.408;2023-03-26T06:50:00;96890;;;5.3;86.3
23253;BME280;11795;47.054;15.408;2023-03-26T06:52:02;96880;;;5.3;86.4
23253;BME280;11795;47.054;15.408;2023-03-26T06:54:00;96890;;;5.6;85.9
23253;BME280;11795;47.054;15.408;2023-03-26T06:56:01;96900;;;5.5;85.2
23253;BME280;11795;47.054;15.408;2023-03-26T06:58:00;96910;;;5.4;85.6
23253;BME280;11795;47.054;15.408;2023-03-26T07:00:00;96900;;;5.6;85.2
23253;BME280;11795;47.054;15.408;2023-03-26T07:02:00;96900;;;5.5;85.1
23253;BME280;11795;47.054;15.408;2023-03-26T07:04:00;96900;;;5.8;85.2
23253;BME280;11795;47.054;15.408;2023-03-26T07:06:00;96900;;;5.7;85.3
23253;BME280;11795;47.054;15.408;2023-03-26T07:08:00;96890;;;5.6;85.8
23253;BME280;11795;47.054;15.408;2023-03-26T07:10:00;96880;;;5.9;85.4
23253;BME280;11795;47.054;15.408;2023-03-26T07:12:00;96880;;;5.8;85.1
23253;BME280;11795;47.054;15.408;2023-03-26T07:14:00;96870;;;6.0;84.5
23253;BME280;11795;47.054;15.408;2023-03-26T07:16:00;96870;;;5.9;84.3
23253;BME280;11795;47.054;15.408;2023-03-26T07:18:00;96860;;;5.9;84.7
23253;BME280;11795;47.054;15.408;2023-03-26T07:20:00;96850;;;6.2;84.4
23253;BME280;11795;47.054;15.408;2023-03-26T07:22:01;96840;;;6.2;84.4
23253;BME280;11795;47.054;15.408;2023-03-26T07:24:00;96840;;;6.5;82.5
23253;BME280;11795;47.054;15.408;2023-03-26T07:26:10;96850;;;6.4;82.4
23253;BME280;11795;47.054;15.408;2023-03-26T07:28:06;96850;;;6.5;83.1
23253;BME280;11795;47.054;15.408;2023-03-26T07:30:05;96850;;;6.7;82.7
23253;BME280;11795;47.054;15.408;2023-03-26T07:32:08;96850;;;6.7;82.4
23253;BME280;11795;47.054;15.408;2023-03-26T07:34:08;96850;;;7.0;82.1
23253;BME280;11795;47.054;15.408;2023-03-26T07:36:07;96850;;;7.0;81.7
23253;BME280;11795;47.054;15.408;2023-03-26T07:38:12;96850;;;7.0;81.2
23253;BME280;11795;47.054;15.408;2023-03-26T07:40:04;96840;;;7.3;80.3
23253;BME280;11795;47.054;15.408;2023-03-26T07:42:05;96850;;;7.2;80.2
23253;BME280;11795;47.054;15.408;2023-03-26T07:44:10;96850;;;7.4;79.1
23253;BME280;11795;47.054;15.408;2023-03-26T07:46:00;96840;;;7.2;78.4
23253;BME280;11795;47.054;15.408;2023-03-26T07:48:01;96840;;;7.2;78.2
23253;BME280;11795;47.054;15.408;2023-03-26T07:50:00;96840;;;7.2;77.3
23253;BME280;11795;47.054;15.408;2023-03-26T07:52:00;96840;;;7.1;77.8
23253;BME280;11795;47.054;15.408;2023-03-26T07:54:03;96830;;;7.2;78.1
23253;BME280;11795;47.054;15.408;2023-03-26T07:56:06;96820;;;7.2;78.4
23253;BME280;11795;47.054;15.408;2023-03-26T07:58:10;96820;;;7.2;79.0
23253;BME280;11795;47.054;15.408;2023-03-26T08:00:06;96820;;;7.4;78.4
23253;BME280;11795;47.054;15.408;2023-03-26T08:02:15;96810;;;7.4;78.6
23253;BME280;11795;47.054;15.408;2023-03-26T08:04:10;96800;;;7.6;78.1
23253;BME280;11795;47.054;15.408;2023-03-26T08:06:06;96800;;;7.6;77.6
23253;BME280;11795;47.054;15.408;2023-03-26T08:08:09;96800;;;7.5;78.1
23253;BME280;11795;47.054;15.408;2023-03-26T08:10:05;96800;;;7.7;77.2
23253;BME280;11795;47.054;15.408;2023-03-26T08:12:08;96800;;;7.7;77.5
23253;BME280;11795;47.054;15.408;2023-03-26T08:14:10;96790;;;7.8;77.3
23253;BME280;11795;47.054;15.408;2023-03-26T08:16:06;96800;;;7.7;76.7
23253;BME280;11795;47.054;15.408;2023-03-26T08:18:06;96800;;;7.7;76.6
23253;BME280;11795;47.054;15.408;2023-03-26T08:20:08;96790;;;7.9;75.7
23253;BME280;11795;47.054;15.408;2023-03-26T08:22:05;96790;;;7.8;75.8
23253;BME280;11795;47.054;15.408;2023-03-26T08:24:05;96790;;;8.1;75.9
23253;BME280;11795;47.054;15.408;2023-03-26T08:26:08;96790;;;8.0;74.9
23253;BME280;11795;47.054;15.408;2023-03-26T08:28:09;96790;;;7.9;74.9
23253;BME280;11795;47.054;15.408;2023-03-26T08:30:07;96790;;;8.1;74.5
23253;BME280;11795;47.054;15.408;2023-03-26T08:32:03;96790;;;8.1;74.8
23253;BME280;11795;47.054;15.408;2023-03-26T08:34:00;96790;;;8.2;74.6
23253;BME280;11795;47.054;15.408;2023-03-26T08:36:00;96790;;;8.2;74.2
23253;BME280;11795;47.054;15.408;2023-03-26T08:38:00;96790;;;8.2;73.9
23253;BME280;11795;47.054;15.408;2023-03-26T08:40:00;96790;;;8.3;73.2
23253;BME280;11795;47.054;15.408;2023-03-26T08:42:18;96780;;;8.3;73.2
23253;BME280;11795;47.054;15.408;2023-03-26T08:44:09;96790;;;8.4;73.0
23253;BME280;11795;47.054;15.408;2023-03-26T08:46:19;96780;;;8.3;72.9
23253;BME280;11795;47.054;15.408;2023-03-26T08:48:20;96780;;;8.2;72.9
23253;BME280;11795;47.054;15.408;2023-03-26T08:52:15;96780;;;8.2;72.2
23253;BME280;11795;47.054;15.408;2023-03-26T08:54:19;96770;;;8.3;72.7
23253;BME280;11795;47.054;15.408;2023-03-26T08:56:05;96760;;;8.3;73.0
23253;BME280;11795;47.054;15.408;2023-03-26T09:00:15;96750;;;8.6;72.9
23253;BME280;11795;47.054;15.408;2023-03-26T09:04:12;96740;;;8.8;71.2
23253;BME280;11795;47.054;15.408;2023-03-26T09:06:13;96740;;;8.8;71.1
23253;BME280;11795;47.054;15.408;2023-03-26T09:08:17;96730;;;8.8;71.7
23253;BME280;11795;47.054;15.408;2023-03-26T09:12:19;96720;;;8.9;70.8
23253;BME280;11795;47.054;15.408;2023-03-26T09:16:15;96720;;;9.0;70.2
23253;BME280;11795;47.054;15.408;2023-03-26T09:18:16;96720;;;9.1;70.4
23253;BME280;11795;47.054;15.408;2023-03-26T09:20:19;96710;;;9.4;69.5
23253;BME280;11795;47.054;15.408;2023-03-26T09:24:15;96710;;;9.7;68.4
23253;BME280;11795;47.054;15.408;2023-03-26T09:28:19;96710;;;9.9;68.4
23253;BME280;11795;47.054;15.408;2023-03-26T09:30:19;96710;;;10.2;67.5
23253;BME280;11795;47.054;15.408;2023-03-26T09:32:14;96700;;;10.2;67.0
23253;BME280;11795;47.054;15.408;2023-03-26T09:34:08;96690;;;10.4;66.1
23253;BME280;11795;47.054;15.408;2023-03-26T09:36:17;96690;;;10.5;65.2
23253;BME280;11795;47.054;15.408;2023-03-26T09:38:10;96670;;;10.6;64.5
23253;BME280;11795;47.054;15.408;2023-03-26T09:40:13;96670;;;10.9;63.4
23253;BME280;11795;47.054;15.408;2023-03-26T09:42:08;96660;;;10.8;62.9
23253;BME280;11795;47.054;15.408;2023-03-26T09:44:17;96660;;;10.9;62.5
23253;BME280;11795;47.054;15.408;2023-03-26T09:46:06;96650;;;10.9;61.2
23253;BME280;11795;47.054;15.408;2023-03-26T09:48:21;96640;;;10.9;61.3
23253;BME280;11795;47.054;15.408;2023-03-26T09:52:13;96630;;;11.1;60.1
23253;BME280;11795;47.054;15.408;2023-03-26T09:54:12;96630;;;11.3;60.1
23253;BME280;11795;47.054;15.408;2023-03-26T09:56:08;96630;;;11.4;59.3
23253;BME280;11795;47.054;15.408;2023-03-26T09:58:15;96630;;;11.4;59.5
23253;BME280;11795;47.054;15.408;2023-03-26T10:00:13;96640;;;11.7;58.9
23253;BME280;11795;47.054;15.408;2023-03-26T10:02:11;96640;;;11.7;59.9
23253;BME280;11795;47.054;15.408;2023-03-26T10:06:08;96620;;;11.7;58.0
23253;BME280;11795;47.054;15.408;2023-03-26T10:08:10;96620;;;11.6;57.9
23253;BME280;11795;47.054;15.408;2023-03-26T10:10:03;96610;;;11.7;58.2
23253;BME280;11795;47.054;15.408;2023-03-26T10:12:09;96600;;;11.8;59.2
23253;BME280;11795;47.054;15.408;2023-03-26T10:14:09;96600;;;11.9;59.5
23253;BME280;11795;47.054;15.408;2023-03-26T10:16:08;96600;;;12.0;58.8
23253;BME280;11795;47.054;15.408;2023-03-26T10:18:09;96600;;;12.0;57.7
23253;BME280;11795;47.054;15.408;2023-03-26T10:20:15;96590;;;12.2;57.9
23253;BME280;11795;47.054;15.408;2023-03-26T10:22:08;96590;;;12.0;56.5
23253;BME280;11795;47.054;15.408;2023-03-26T10:24:12;96580;;;12.0;57.6
23253;BME280;11795;47.054;15.408;2023-03-26T10:26:10;96580;;;12.2;58.0
23253;BME280;11795;47.054;15.408;2023-03-26T10:28:12;96580;;;12.4;56.5
23253;BME280;11795;47.054;15.408;2023-03-26T10:32:08;96580;;;12.6;57.5
23253;BME280;11795;47.054;15.408;2023-03-26T10:34:10;96560;;;12.8;57.4
23253;BME280;11795;47.054;15.408;2023-03-26T10:36:14;96560;;;12.9;56.1
23253;BME280;11795;47.054;15.408;2023-03-26T10:38:12;96550;;;12.9;56.1
23253;BME280;11795;47.054;15.408;2023-03-26T10:40:10;96560;;;13.0;56.1
23253;BME280;11795;47.054;15.408;2023-03-26T10:42:09;96560;;;13.0;56.2
23253;BME280;11795;47.054;15.408;2023-03-26T10:46:19;96560;;;13.3;54.9
23253;BME280;11795;47.054;15.408;2023-03-26T10:48:11;96560;;;13.4;55.1
23253;BME280;11795;47.054;15.408;2023-03-26T10:50:19;96570;;;13.7;54.9
23253;BME280;11795;47.054;15.408;2023-03-26T10:52:02;96570;;;13.5;53.7
23253;BME280;11795;47.054;15.408;2023-03-26T10:54:05;96560;;;13.2;54.6
23253;BME280;11795;47.054;15.408;2023-03-26T10:56:06;96560;;;13.1;55.1
23253;BME280;11795;47.054;15.408;2023-03-26T10:58:07;96550;;;13.2;54.9
23253;BME280;11795;47.054;15.408;2023-03-26T11:00:13;96550;;;13.1;54.9
23253;BME280;11795;47.054;15.408;2023-03-26T11:02:18;96540;;;13.3;55.4
23253;BME280;11795;47.054;15.408;2023-03-26T11:04:04;96540;;;13.3;56.0
23253;BME280;11795;47.054;15.408;2023-03-26T11:06:08;96540;;;13.5;55.3
23253;BME280;11795;47.054;15.408;2023-03-26T11:08:04;96540;;;13.5;55.8
23253;BME280;11795;47.054;15.408;2023-03-26T11:10:04;96530;;;13.7;55.2
23253;BME280;11795;47.054;15.408;2023-03-26T11:12:05;96520;;;13.6;54.9
23253;BME280;11795;47.054;15.408;2023-03-26T11:14:04;96510;;;13.6;55.4
23253;BME280;11795;47.054;15.408;2023-03-26T11:16:02;96510;;;13.9;54.6
23253;BME280;11795;47.054;15.408;2023-03-26T11:18:09;96510;;;13.9;55.1
23253;BME280;11795;47.054;15.408;2023-03-26T11:20:04;96500;;;14.2;55.1
23253;BME280;11795;47.054;15.408;2023-03-26T11:22:09;96500;;;14.5;55.1
23253;BME280;11795;47.054;15.408;2023-03-26T11:24:14;96500;;;14.9;55.2
23253;BME280;11795;47.054;15.408;2023-03-26T11:26:06;96500;;;15.2;53.7
23253;BME280;11795;47.054;15.408;2023-03-26T11:28:09;96500;;;15.0;52.2
23253;BME280;11795;47.054;15.408;2023-03-26T11:30:09;96490;;;15.0;53.0
23253;BME280;11795;47.054;15.408;2023-03-26T11:32:04;96480;;;14.9;53.1
23253;BME280;11795;47.054;15.408;2023-03-26T11:34:07;96470;;;14.8;53.6
23253;BME280;11795;47.054;15.408;2023-03-26T11:36:03;96460;;;15.0;53.9
23253;BME280;11795;47.054;15.408;2023-03-26T11:38:04;96460;;;15.1;53.1
23253;BME280;11795;47.054;15.408;2023-03-26T11:40:03;96460;;;15.2;53.2
23253;BME280;11795;47.054;15.408;2023-03-26T11:42:05;96460;;;15.1;52.7